Columbia, New Jersey
Current Conditions -  °F | °C
As of 2:53 PM on Monday 24 Nov 2014 (Local Time) from KMPO Reporting Station
Few Clouds Few Clouds  
Wind Chill: 63°   Ceiling: Unl
Heat Index: 63°   Visibility: 10mi
Dew Point: 52°   Wind: 23mph
Humidity: 67%   Direction: 210°SSW
Pressure: 29.55"   Gusts: 32mph
Location:  40.93°N, 75.09°W
Report Text: KMPO 241953Z AUTO 21020G28KT 10SM FEW024 17/11 A2955 RMK AO2 PK WND 19034/1937 SLP007 T01720111
Loading
Personal Weather Stations






























Interactive Weather Map New forecast layout! Learn more

10-Day Weather Forecast

Advertisements
Track Severe Weather on mobile